Time;durP1;ratioP1;P1;durP2;ratioP2;P2;SDS_P1;SDS_P2;PMS_P1;PMS_P2;Temp;Humidity;BMP_temperature;BMP_pressure;BME280_temperature;BME280_humidity;BME280_pressure;Samples;Min_cycle;Max_cycle;Signal;HPM_P1;HPM_P2
2022/04/04 00:01:01;;;;;;;3.50;2.60;;;3.50;99.90;;;;;;5109087;28;20044;-76
2022/04/04 00:03:26;;;;;;;9.25;2.75;;;3.50;99.90;;;;;;5107313;27;20370;-76
2022/04/04 00:05:52;;;;;;;24.67;4.45;;;3.50;99.90;;;;;;5106227;28;20055;-76
2022/04/04 00:08:18;;;;;;;6.18;2.65;;;3.50;99.90;;;;;;5097367;28;20036;-76
2022/04/04 00:10:43;;;;;;;6.80;3.30;;;3.50;99.90;;;;;;5101742;28;20096;-76
2022/04/04 00:13:09;;;;;;;6.75;3.05;;;3.50;99.90;;;;;;5104916;28;20047;-75
2022/04/04 00:15:35;;;;;;;4.93;2.50;;;3.50;99.90;;;;;;5109901;27;20047;-75
2022/04/04 00:18:08;;;;;;;5.32;3.13;;;3.60;99.90;;;;;;5097085;28;20735;-76
2022/04/04 00:20:34;;;;;;;5.13;2.60;;;3.70;99.90;;;;;;5101456;28;20078;-75
2022/04/04 00:23:00;;;;;;;5.20;3.10;;;3.70;99.90;;;;;;5111501;27;20508;-75
2022/04/04 00:25:25;;;;;;;5.55;2.35;;;3.70;99.90;;;;;;5103194;28;20122;-75
2022/04/04 00:27:51;;;;;;;15.18;4.72;;;3.70;99.90;;;;;;5109689;28;20043;-75
2022/04/04 00:30:17;;;;;;;4.47;2.83;;;3.60;99.90;;;;;;5106322;28;20035;-75
2022/04/04 00:32:43;;;;;;;6.43;3.08;;;3.60;99.90;;;;;;5108780;28;20074;-75
2022/04/04 00:35:09;;;;;;;8.23;3.25;;;3.60;99.90;;;;;;5107759;28;20533;-75
2022/04/04 00:37:37;;;;;;;6.40;3.17;;;3.60;99.90;;;;;;5106426;27;20516;-75
2022/04/04 00:40:07;;;;;;;7.03;4.82;;;3.60;99.90;;;;;;5102988;28;20040;-76
2022/04/04 00:42:32;;;;;;;;;;;3.60;99.90;;;;;;5108668;28;20043;-75
2022/04/04 00:44:59;;;;;;;5.43;3.33;;;3.60;99.90;;;;;;5108203;28;19971;-75
2022/04/04 00:47:24;;;;;;;7.25;3.13;;;3.50;99.90;;;;;;5106957;27;20039;-76
2022/04/04 00:49:50;;;;;;;15.02;6.00;;;3.50;99.90;;;;;;5109907;28;20051;-75
2022/04/04 00:52:16;;;;;;;7.18;3.70;;;3.60;99.90;;;;;;5107444;28;20047;-75
2022/04/04 00:54:42;;;;;;;5.53;3.10;;;3.60;99.90;;;;;;5098088;28;20036;-75
2022/04/04 00:57:08;;;;;;;10.75;3.60;;;3.50;99.90;;;;;;5107497;27;20165;-75
2022/04/04 00:59:35;;;;;;;8.95;3.95;;;3.50;99.90;;;;;;5102202;27;20047;-76
2022/04/04 01:02:00;;;;;;;8.90;4.13;;;3.50;99.90;;;;;;5104174;28;20070;-76
2022/04/04 01:04:26;;;;;;;9.48;3.83;;;3.60;99.90;;;;;;5109301;28;20031;-75
2022/04/04 01:06:52;;;;;;;6.85;4.63;;;3.60;99.90;;;;;;5105244;28;20035;-75
2022/04/04 01:09:18;;;;;;;6.60;4.13;;;3.50;99.90;;;;;;5101352;28;20445;-75
2022/04/04 01:12:02;;;;;;;9.10;5.03;;;3.50;99.90;;;;;;5105936;27;20035;-75
2022/04/04 01:14:29;;;;;;;6.63;4.90;;;3.50;99.90;;;;;;5090409;28;20097;-75
2022/04/04 01:16:55;;;;;;;8.90;4.32;;;3.50;99.90;;;;;;5122094;27;20114;-75
2022/04/04 01:19:20;;;;;;;12.73;4.45;;;3.40;99.90;;;;;;5108910;28;20197;-76
2022/04/04 01:21:46;;;;;;;16.08;5.38;;;3.40;99.90;;;;;;5105262;28;20048;-75
2022/04/04 01:24:18;;;;;;;10.30;5.57;;;3.40;99.90;;;;;;5108425;28;20104;-75
2022/04/04 01:26:48;;;;;;;6.80;5.28;;;3.40;99.90;;;;;;5104900;27;20071;-75
2022/04/04 01:29:13;;;;;;;6.63;5.10;;;3.40;99.90;;;;;;5102667;28;20035;-75
2022/04/04 01:31:39;;;;;;;10.80;7.03;;;3.40;99.90;;;;;;5106476;28;20100;-75
2022/04/04 01:34:05;;;;;;;13.75;7.00;;;3.40;99.90;;;;;;5106180;28;20077;-75
2022/04/04 01:36:31;;;;;;;10.85;7.05;;;3.40;99.90;;;;;;5099184;27;20444;-75
2022/04/04 01:38:56;;;;;;;14.52;8.55;;;3.40;99.90;;;;;;5119494;27;20098;-75
2022/04/04 01:41:22;;;;;;;15.75;9.13;;;3.50;99.90;;;;;;5121521;27;20476;-75
2022/04/04 01:43:47;;;;;;;9.52;8.32;;;3.60;99.90;;;;;;5122595;27;20040;-75
2022/04/04 01:46:26;;;;;;;18.75;11.02;;;3.60;99.90;;;;;;5109781;28;20048;-76
2022/04/04 01:48:58;;;;;;;13.65;10.25;;;3.70;99.90;;;;;;5108320;27;20036;-76
2022/04/04 01:51:24;;;;;;;17.27;11.05;;;3.80;99.90;;;;;;5106507;27;20043;-75
2022/04/04 01:53:50;;;;;;;17.55;11.23;;;3.80;99.90;;;;;;5116178;27;20861;-76
2022/04/04 01:56:17;;;;;;;16.40;11.18;;;3.90;99.90;;;;;;5102755;27;20040;-76
2022/04/04 01:58:43;;;;;;;19.73;14.90;;;3.90;99.90;;;;;;5091206;28;20127;-75
2022/04/04 02:01:11;;;;;;;22.90;15.20;;;4.00;99.90;;;;;;5108318;28;20139;-75
2022/04/04 02:03:37;;;;;;;20.08;13.43;;;3.90;99.90;;;;;;5105983;28;20036;-75
2022/04/04 02:06:03;;;;;;;21.05;14.88;;;4.00;99.90;;;;;;5107229;28;20078;-76
2022/04/04 02:08:30;;;;;;;22.45;15.95;;;4.00;99.90;;;;;;5104160;28;20060;-75
2022/04/04 02:10:56;;;;;;;20.73;14.57;;;4.10;99.90;;;;;;5103803;28;20059;-75
2022/04/04 02:13:25;;;;;;;19.60;15.05;;;4.10;99.90;;;;;;5108542;28;20036;-76
2022/04/04 02:15:56;;;;;;;19.45;12.55;;;4.20;99.90;;;;;;5094158;28;20036;-76
2022/04/04 02:18:22;;;;;;;19.02;13.75;;;4.20;99.90;;;;;;5106170;28;20201;-76
2022/04/04 02:20:48;;;;;;;21.30;15.40;;;4.20;99.90;;;;;;5101330;28;20126;-76
2022/04/04 02:23:18;;;;;;;18.20;14.43;;;4.30;99.90;;;;;;5086451;28;20044;-75
2022/04/04 02:25:48;;;;;;;16.63;14.45;;;4.30;99.90;;;;;;5107773;28;20432;-77
2022/04/04 02:28:14;;;;;;;;;;;4.40;99.90;;;;;;5109317;28;20043;-76
2022/04/04 02:30:40;;;;;;;17.98;12.88;;;4.40;99.90;;;;;;5102042;28;19931;-74
2022/04/04 02:33:07;;;;;;;17.55;11.95;;;4.50;99.90;;;;;;5112438;28;20689;-75
2022/04/04 02:35:32;;;;;;;20.08;12.88;;;4.50;99.90;;;;;;5102683;28;20040;-76
2022/04/04 02:37:59;;;;;;;16.75;12.77;;;4.60;99.90;;;;;;5113280;28;20047;-75
2022/04/04 02:40:24;;;;;;;18.33;11.75;;;4.60;99.90;;;;;;5108806;27;20044;-75
2022/04/04 02:42:50;;;;;;;20.85;13.70;;;4.70;99.90;;;;;;5101261;28;20708;-76
2022/04/04 02:45:16;;;;;;;19.83;13.88;;;4.70;99.90;;;;;;5104458;28;20063;-75
2022/04/04 02:47:42;;;;;;;18.73;14.52;;;4.70;99.90;;;;;;5110705;28;20548;-74
2022/04/04 02:50:09;;;;;;;23.90;16.20;;;4.80;99.90;;;;;;5104664;28;20044;-74
2022/04/04 02:52:35;;;;;;;24.73;14.00;;;4.90;99.90;;;;;;5109015;28;20035;-76
2022/04/04 02:56:28;;;;;;;16.42;13.18;;;4.90;99.90;;;;;;5105938;27;20032;-75
2022/04/04 02:57:47;;;;;;;19.08;13.63;;;4.90;99.90;;;;;;5111341;28;20079;-75
2022/04/04 03:00:14;;;;;;;20.77;14.63;;;4.90;99.90;;;;;;5110215;28;20051;-75
2022/04/04 03:02:39;;;;;;;22.15;13.75;;;4.90;99.90;;;;;;5108051;27;20180;-76
2022/04/04 03:05:05;;;;;;;22.73;14.35;;;5.00;99.90;;;;;;5104021;27;20126;-76
2022/04/04 03:07:30;;;;;;;23.92;14.95;;;5.00;99.90;;;;;;5109136;27;20046;-75
2022/04/04 03:09:56;;;;;;;19.52;13.85;;;5.00;99.90;;;;;;5101438;28;20042;-76
2022/04/04 03:12:21;;;;;;;20.95;16.30;;;5.10;99.90;;;;;;5106539;28;20478;-75
2022/04/04 03:14:47;;;;;;;19.40;13.13;;;5.10;99.90;;;;;;5116346;27;20405;-75
2022/04/04 03:17:13;;;;;;;20.90;14.60;;;5.10;99.90;;;;;;5093971;28;20134;-75
2022/04/04 03:19:38;;;;;;;18.52;14.48;;;5.20;99.90;;;;;;5092004;27;20061;-76
2022/04/04 03:22:04;;;;;;;23.13;14.30;;;5.20;99.90;;;;;;5097534;28;20044;-76
2022/04/04 03:24:30;;;;;;;26.65;15.43;;;5.20;99.90;;;;;;5102468;27;20468;-76
2022/04/04 03:26:55;;;;;;;19.83;13.65;;;5.20;99.90;;;;;;5106925;28;20548;-76
2022/04/04 03:29:21;;;;;;;22.60;14.27;;;5.20;99.90;;;;;;5109277;28;20039;-76
2022/04/04 03:31:46;;;;;;;24.17;14.10;;;5.20;99.90;;;;;;5100139;28;20405;-76
2022/04/04 03:34:12;;;;;;;23.45;16.77;;;5.20;99.90;;;;;;5107220;28;20057;-76
2022/04/04 03:36:38;;;;;;;57.70;19.30;;;5.10;99.90;;;;;;5108787;27;20402;-76
2022/04/04 03:39:03;;;;;;;22.63;15.75;;;5.10;99.90;;;;;;5107909;27;20035;-76
2022/04/04 03:41:29;;;;;;;21.27;15.45;;;5.10;99.90;;;;;;5120806;27;20115;-76
2022/04/04 03:43:55;;;;;;;23.25;15.88;;;5.10;99.90;;;;;;5112542;27;20050;-75
2022/04/04 03:46:20;;;;;;;23.50;16.45;;;5.10;99.90;;;;;;5111264;27;20051;-76
2022/04/04 03:48:46;;;;;;;23.05;16.90;;;5.10;99.90;;;;;;5112335;28;20032;-75
2022/04/04 03:51:12;;;;;;;28.30;17.85;;;5.10;99.90;;;;;;5110037;27;20051;-75
2022/04/04 03:53:38;;;;;;;18.35;16.15;;;5.10;99.90;;;;;;5109534;28;20044;-75
2022/04/04 03:56:04;;;;;;;26.83;19.42;;;5.10;99.90;;;;;;5112114;27;20505;-76
2022/04/04 03:58:30;;;;;;;31.10;18.98;;;5.10;99.90;;;;;;5109844;27;20067;-75
2022/04/04 04:00:55;;;;;;;23.63;16.63;;;5.10;99.90;;;;;;5109081;27;20114;-75
2022/04/04 04:03:21;;;;;;;31.30;18.23;;;5.10;99.90;;;;;;5107541;28;20036;-75
2022/04/04 04:05:47;;;;;;;34.65;19.08;;;5.20;99.90;;;;;;5121650;27;20027;-75
2022/04/04 04:08:12;;;;;;;31.02;18.88;;;5.20;99.90;;;;;;5095593;28;20120;-75
2022/04/04 04:10:38;;;;;;;31.05;17.85;;;5.20;99.90;;;;;;5111498;27;20040;-75
2022/04/04 04:13:05;;;;;;;32.75;19.25;;;5.20;99.90;;;;;;5105853;28;20484;-75
2022/04/04 04:15:31;;;;;;;29.35;18.05;;;5.20;99.90;;;;;;5112680;27;20122;-74
2022/04/04 04:17:57;;;;;;;25.67;17.38;;;5.20;99.90;;;;;;5109940;27;20038;-76
2022/04/04 04:20:23;;;;;;;27.63;17.60;;;5.20;99.90;;;;;;5105918;28;20028;-75
2022/04/04 04:22:52;;;;;;;25.85;17.50;;;5.20;99.90;;;;;;5104883;28;20414;-75
2022/04/04 04:25:18;;;;;;;29.00;15.98;;;5.20;99.90;;;;;;5102510;28;20399;-75
2022/04/04 04:27:45;;;;;;;28.02;16.98;;;5.20;99.90;;;;;;5110856;28;20051;-75
2022/04/04 04:30:13;;;;;;;32.85;17.67;;;5.20;99.90;;;;;;5105230;28;20036;-76
2022/04/04 04:32:44;;;;;;;22.60;16.25;;;5.20;99.90;;;;;;5107343;28;20047;-76
2022/04/04 04:35:11;;;;;;;30.50;16.10;;;5.20;99.90;;;;;;5107559;28;20502;-75
2022/04/04 04:37:37;;;;;;;23.35;13.10;;;5.20;99.90;;;;;;5091949;28;20051;-76
2022/04/04 04:40:04;;;;;;;24.90;12.13;;;5.20;99.90;;;;;;5097031;27;20087;-76
2022/04/04 04:42:32;;;;;;;15.68;9.63;;;5.20;99.90;;;;;;5108706;28;20146;-77
2022/04/04 04:44:57;;;;;;;17.20;10.38;;;5.20;99.90;;;;;;5106961;28;20036;-76
2022/04/04 04:47:23;;;;;;;18.23;11.07;;;5.10;99.90;;;;;;5088925;28;20558;-75
2022/04/04 04:49:48;;;;;;;21.08;9.35;;;5.20;99.90;;;;;;5097899;27;20047;-75
2022/04/04 04:52:15;;;;;;;17.65;9.60;;;5.10;99.90;;;;;;5105184;28;20044;-75
2022/04/04 04:54:42;;;;;;;15.70;11.55;;;5.10;99.90;;;;;;5098909;28;20497;-74
2022/04/04 04:57:09;;;;;;;15.10;9.75;;;5.10;99.90;;;;;;5091090;28;20438;-74
2022/04/04 04:59:34;;;;;;;18.35;10.68;;;5.10;99.90;;;;;;5099786;28;20102;-75
2022/04/04 05:02:00;;;;;;;15.05;10.63;;;5.10;99.90;;;;;;5106269;28;20075;-75
2022/04/04 05:04:26;;;;;;;22.55;9.75;;;5.20;99.90;;;;;;5102391;28;20039;-75
2022/04/04 05:06:51;;;;;;;42.67;10.07;;;5.20;99.90;;;;;;5098272;28;20036;-75
2022/04/04 05:09:17;;;;;;;14.40;9.43;;;5.20;99.90;;;;;;5091575;28;20131;-75
2022/04/04 05:11:43;;;;;;;14.73;10.30;;;5.10;99.90;;;;;;5107947;28;20100;-73
2022/04/04 05:14:15;;;;;;;21.63;10.82;;;5.10;99.90;;;;;;5110090;28;20035;-75
2022/04/04 05:16:47;;;;;;;13.40;9.80;;;5.10;99.90;;;;;;5101993;27;20040;-74
2022/04/04 05:19:14;;;;;;;18.58;11.05;;;5.10;99.90;;;;;;5099867;28;20152;-75
2022/04/04 05:21:40;;;;;;;13.82;11.18;;;5.10;99.90;;;;;;5099941;28;20040;-76
2022/04/04 05:24:07;;;;;;;16.77;10.25;;;5.10;99.90;;;;;;5108998;28;20047;-75
2022/04/04 05:26:33;;;;;;;19.50;12.93;;;5.10;99.90;;;;;;5081761;28;20138;-75
2022/04/04 05:29:00;;;;;;;19.02;11.85;;;5.10;99.90;;;;;;5101840;28;20046;-75
2022/04/04 05:31:27;;;;;;;27.73;11.75;;;5.10;99.90;;;;;;5092340;27;20482;-75
2022/04/04 05:33:54;;;;;;;20.13;11.55;;;5.00;99.90;;;;;;5110117;28;20073;-76
2022/04/04 05:36:20;;;;;;;26.95;12.35;;;5.00;99.90;;;;;;5099429;27;20043;-75
2022/04/04 05:38:50;;;;;;;18.05;9.70;;;5.00;99.90;;;;;;5124608;27;20043;-75
2022/04/04 05:41:16;;;;;;;16.08;9.55;;;5.10;99.90;;;;;;5130840;27;20485;-75
2022/04/04 05:43:43;;;;;;;14.18;7.93;;;5.00;99.90;;;;;;5106248;27;20047;-75
2022/04/04 05:46:09;;;;;;;9.30;6.55;;;4.90;99.90;;;;;;5099432;28;20379;-74
2022/04/04 05:48:34;;;;;;;15.15;7.00;;;4.80;99.90;;;;;;5089486;28;20040;-74
2022/04/04 05:51:00;;;;;;;10.25;6.47;;;4.80;99.90;;;;;;5097227;28;20035;-74
2022/04/04 05:53:26;;;;;;;10.35;4.47;;;4.70;99.90;;;;;;5100060;28;20040;-74
2022/04/04 05:55:51;;;;;;;14.32;5.22;;;4.70;99.90;;;;;;5094369;28;20462;-74
2022/04/04 05:58:17;;;;;;;11.80;5.00;;;4.70;99.90;;;;;;5100219;28;20036;-75
2022/04/04 06:00:42;;;;;;;5.25;3.90;;;4.60;99.90;;;;;;5089828;28;20036;-75
2022/04/04 06:03:08;;;;;;;5.55;3.63;;;4.60;99.90;;;;;;5091806;28;20465;-74
2022/04/04 06:05:35;;;;;;;8.82;3.65;;;4.60;99.90;;;;;;5092999;28;20047;-74
2022/04/04 06:08:01;;;;;;;7.45;3.95;;;4.60;99.90;;;;;;5107325;28;20066;-74
2022/04/04 06:10:27;;;;;;;11.25;3.00;;;4.60;99.90;;;;;;5103728;28;20437;-75
2022/04/04 06:12:52;;;;;;;4.60;2.75;;;4.70;99.90;;;;;;5099330;28;20039;-75
2022/04/04 06:15:18;;;;;;;15.80;4.75;;;4.60;99.90;;;;;;5106564;28;20044;-74
2022/04/04 06:17:44;;;;;;;6.25;3.72;;;4.60;99.90;;;;;;5112030;28;20040;-74
2022/04/04 06:20:10;;;;;;;8.77;4.50;;;4.60;99.90;;;;;;5105881;28;20048;-75
2022/04/04 06:22:37;;;;;;;7.70;3.45;;;4.70;99.90;;;;;;5074912;28;20048;-75
2022/04/04 06:25:04;;;;;;;12.05;6.05;;;4.70;99.90;;;;;;5100158;28;20406;-74
2022/04/04 06:27:30;;;;;;;10.35;3.72;;;4.70;99.90;;;;;;5111486;28;20054;-74
2022/04/04 06:29:57;;;;;;;15.52;4.75;;;4.60;99.90;;;;;;5110916;27;20039;-74
2022/04/04 06:32:24;;;;;;;11.65;3.45;;;4.70;99.90;;;;;;5106486;28;20044;-75
2022/04/04 06:34:50;;;;;;;6.45;4.28;;;4.80;99.90;;;;;;5112019;28;20123;-75
2022/04/04 06:37:16;;;;;;;13.65;4.60;;;4.80;99.90;;;;;;5110099;28;20075;-76
2022/04/04 06:39:42;;;;;;;7.75;4.85;;;4.80;99.90;;;;;;5102340;28;20036;-76
2022/04/04 06:42:08;;;;;;;6.95;4.32;;;4.80;99.90;;;;;;5130677;27;20035;-77
2022/04/04 06:44:33;;;;;;;10.43;5.28;;;4.90;99.90;;;;;;5098960;27;20123;-76
2022/04/04 06:46:59;;;;;;;10.02;5.20;;;4.90;99.90;;;;;;5112005;28;20073;-75
2022/04/04 06:49:25;;;;;;;14.95;6.70;;;4.90;99.90;;;;;;5112113;28;20398;-76
2022/04/04 06:51:52;;;;;;;13.82;7.50;;;5.00;99.90;;;;;;5113104;28;20050;-76
2022/04/04 06:54:19;;;;;;;12.65;6.63;;;5.00;99.90;;;;;;5108460;28;20081;-75
2022/04/04 06:56:53;;;;;;;10.43;6.68;;;5.00;99.90;;;;;;5105222;28;20048;-76
2022/04/04 06:59:19;;;;;;;13.85;8.18;;;5.00;99.90;;;;;;5108161;28;20511;-74
2022/04/04 07:01:45;;;;;;;10.40;6.88;;;5.10;99.90;;;;;;5108875;27;20087;-74
2022/04/04 07:04:11;;;;;;;9.32;6.97;;;5.00;99.90;;;;;;5110960;28;20393;-74
2022/04/04 07:06:37;;;;;;;9.30;6.97;;;5.10;99.90;;;;;;5113589;27;20102;-74
2022/04/04 07:09:03;;;;;;;13.48;8.45;;;5.20;99.90;;;;;;5103663;28;20044;-74
2022/04/04 07:11:29;;;;;;;16.23;9.02;;;5.10;99.90;;;;;;5092030;28;20145;-75
2022/04/04 07:13:55;;;;;;;36.67;10.18;;;5.20;99.90;;;;;;5107091;28;20047;-75
2022/04/04 07:16:21;;;;;;;19.77;10.55;;;5.20;99.90;;;;;;5114496;27;20367;-75
2022/04/04 07:18:48;;;;;;;23.13;11.20;;;5.30;99.90;;;;;;5098827;27;20047;-75
2022/04/04 07:21:15;;;;;;;24.92;12.55;;;5.30;99.90;;;;;;5092367;27;20477;-75
2022/04/04 07:23:41;;;;;;;18.13;11.57;;;5.30;99.90;;;;;;5092008;28;20062;-75
2022/04/04 07:26:06;;;;;;;33.45;12.45;;;5.40;99.90;;;;;;5105695;28;20107;-75
2022/04/04 07:28:32;;;;;;;16.58;10.10;;;5.40;99.90;;;;;;5112318;28;20054;-75
2022/04/04 07:30:58;;;;;;;19.42;9.70;;;5.40;99.90;;;;;;5105106;27;20490;-75
2022/04/04 07:33:24;;;;;;;20.77;12.85;;;5.40;99.90;;;;;;5098610;28;20117;-75
2022/04/04 07:35:50;;;;;;;19.92;12.40;;;5.50;99.90;;;;;;5099618;28;20075;-75
2022/04/04 07:38:16;;;;;;;24.15;11.82;;;5.60;99.90;;;;;;5115517;27;20047;-76
2022/04/04 07:40:41;;;;;;;23.75;12.20;;;5.60;99.90;;;;;;5100914;28;20043;-76
2022/04/04 07:43:08;;;;;;;17.95;10.73;;;5.60;99.90;;;;;;5104371;28;20375;-75
2022/04/04 07:45:34;;;;;;;18.45;10.40;;;5.70;99.90;;;;;;5112061;27;20032;-75
2022/04/04 07:48:00;;;;;;;18.10;10.88;;;5.60;99.90;;;;;;5112770;28;20044;-74
2022/04/04 07:50:27;;;;;;;25.75;11.73;;;5.70;99.90;;;;;;5131197;27;20041;-75
2022/04/04 07:52:53;;;;;;;15.57;10.38;;;5.70;99.90;;;;;;5111921;27;20039;-75
2022/04/04 07:55:19;;;;;;;17.13;10.82;;;5.70;99.90;;;;;;5108878;28;20572;-75
2022/04/04 07:57:45;;;;;;;12.60;9.35;;;5.80;99.90;;;;;;5111235;28;20056;-75
2022/04/04 08:00:14;;;;;;;27.10;12.57;;;5.70;99.90;;;;;;5090194;28;20032;-76
2022/04/04 08:02:41;;;;;;;20.70;11.55;;;5.70;99.90;;;;;;5119535;27;20043;-75
2022/04/04 08:05:10;;;;;;;15.20;9.00;;;5.70;99.90;;;;;;5131351;27;20516;-75
2022/04/04 08:07:40;;;;;;;15.82;10.10;;;5.70;99.90;;;;;;5131432;27;20047;-76
2022/04/04 08:10:06;;;;;;;13.77;8.55;;;5.80;99.90;;;;;;5103219;28;20067;-77
2022/04/04 08:12:32;;;;;;;14.93;8.27;;;5.90;99.90;;;;;;5111464;28;20475;-75
2022/04/04 08:14:58;;;;;;;13.60;8.13;;;5.80;99.90;;;;;;5106845;27;20119;-75
2022/04/04 08:17:24;;;;;;;11.05;8.32;;;5.90;99.90;;;;;;5092755;28;20052;-75
2022/04/04 08:19:50;;;;;;;18.73;7.88;;;5.80;99.90;;;;;;5106895;27;20039;-82
2022/04/04 08:22:17;;;;;;;13.68;7.43;;;5.90;99.90;;;;;;5102455;27;20435;-76
2022/04/04 08:24:43;;;;;;;12.52;6.63;;;6.00;99.90;;;;;;5100445;28;20056;-77
2022/04/04 08:27:10;;;;;;;12.60;7.25;;;5.90;99.90;;;;;;5105025;28;20158;-75
2022/04/04 08:29:36;;;;;;;9.50;6.50;;;5.90;99.90;;;;;;5092495;28;20039;-76
2022/04/04 08:32:03;;;;;;;9.85;5.72;;;6.00;99.90;;;;;;5109111;28;20039;-76
2022/04/04 08:34:29;;;;;;;9.07;5.22;;;5.90;99.90;;;;;;5109870;28;20058;-77
2022/04/04 08:36:55;;;;;;;9.50;5.93;;;6.00;99.90;;;;;;5090534;28;20763;-80
2022/04/04 08:39:21;;;;;;;11.05;5.70;;;6.00;99.90;;;;;;5101602;28;20046;-78
2022/04/04 08:41:46;;;;;;;9.38;5.32;;;6.10;99.90;;;;;;5093278;28;20048;-75
2022/04/04 08:44:14;;;;;;;11.10;5.55;;;6.00;99.90;;;;;;5108338;28;20394;-78
2022/04/04 08:46:41;;;;;;;4.70;4.22;;;6.10;99.90;;;;;;5092951;28;20051;-77
2022/04/04 08:49:07;;;;;;;5.47;4.85;;;6.10;99.90;;;;;;5106892;28;20079;-76
2022/04/04 08:51:33;;;;;;;12.52;5.53;;;6.10;99.90;;;;;;5093574;27;20082;-78
2022/04/04 08:53:59;;;;;;;9.27;4.10;;;6.10;99.90;;;;;;5102628;28;20119;-80
2022/04/04 08:56:26;;;;;;;11.10;4.50;;;6.10;99.90;;;;;;5099387;28;20520;-82
2022/04/04 08:58:53;;;;;;;8.73;4.05;;;6.10;99.90;;;;;;5104971;28;20127;-82
2022/04/04 09:01:23;;;;;;;4.57;3.33;;;6.10;99.90;;;;;;5098905;27;20536;-82
2022/04/04 09:03:53;;;;;;;;;;;6.20;99.90;;;;;;5103822;28;20526;-80
2022/04/04 09:06:20;;;;;;;10.25;3.80;;;6.20;99.90;;;;;;5108490;28;19916;-81
2022/04/04 09:08:51;;;;;;;6.15;3.92;;;6.30;99.90;;;;;;5102001;27;20068;-80
2022/04/04 09:11:16;;;;;;;8.40;3.97;;;6.20;99.90;;;;;;5098014;28;20036;-76
2022/04/04 09:13:43;;;;;;;9.85;4.22;;;6.30;99.90;;;;;;5103600;28;20127;-82
2022/04/04 09:16:10;;;;;;;12.07;4.45;;;6.30;99.90;;;;;;5103763;27;20085;-81
2022/04/04 09:18:35;;;;;;;6.43;4.10;;;6.40;99.90;;;;;;5101598;27;20035;-83
2022/04/04 09:21:03;;;;;;;10.77;5.05;;;6.40;99.90;;;;;;5112365;27;20048;-82
2022/04/04 09:23:51;;;;;;;6.97;3.80;;;6.40;99.90;;;;;;5108209;27;20097;-82
2022/04/04 09:26:36;;;;;;;8.15;4.45;;;6.40;99.90;;;;;;5076636;28;20151;-77
2022/04/04 09:29:14;;;;;;;8.80;4.03;;;6.40;99.90;;;;;;5103416;27;20452;-82
2022/04/04 09:32:09;;;;;;;20.77;5.72;;;6.50;99.90;;;;;;5078579;27;20629;-83
2022/04/04 09:34:54;;;;;;;7.38;2.88;;;6.40;99.90;;;;;;5094786;27;20056;-83
2022/04/04 09:37:21;;;;;;;10.23;4.35;;;6.50;99.90;;;;;;5108001;28;20044;-82
2022/04/04 09:40:09;;;;;;;9.40;3.63;;;6.50;99.90;;;;;;5106073;28;20032;-81
2022/04/04 09:42:35;;;;;;;8.57;3.83;;;6.50;99.90;;;;;;5097631;28;20051;-77
2022/04/04 09:45:06;;;;;;;12.93;4.10;;;6.60;99.90;;;;;;5092805;28;20031;-76
2022/04/04 09:47:52;;;;;;;11.32;3.72;;;6.60;99.90;;;;;;5101935;28;20429;-78
2022/04/04 09:50:47;;;;;;;4.88;3.33;;;6.70;99.90;;;;;;5098617;28;20044;-78
2022/04/04 09:53:19;;;;;;;9.68;3.67;;;6.70;99.90;;;;;;5094331;28;20070;-78
2022/04/04 09:55:46;;;;;;;11.23;4.22;;;6.80;99.90;;;;;;5102657;28;20044;-77
2022/04/04 09:58:17;;;;;;;7.70;3.50;;;6.80;99.90;;;;;;5099787;28;20467;-78
2022/04/04 10:00:46;;;;;;;11.02;3.92;;;6.80;99.90;;;;;;5093497;28;20475;-77
2022/04/04 10:03:13;;;;;;;7.65;4.43;;;6.80;99.90;;;;;;5106293;28;20047;-78
2022/04/04 10:06:03;;;;;;;8.27;3.58;;;6.70;99.90;;;;;;5097031;28;20044;-77
2022/04/04 10:08:31;;;;;;;9.25;3.60;;;6.70;99.90;;;;;;5093669;28;20547;-77
2022/04/04 10:10:56;;;;;;;12.55;3.78;;;6.80;99.90;;;;;;5099844;28;20398;-77
2022/04/04 10:13:25;;;;;;;5.82;2.90;;;6.80;99.90;;;;;;5091143;28;20059;-81
2022/04/04 10:15:52;;;;;;;9.80;3.90;;;6.80;99.90;;;;;;5098421;28;20086;-75
2022/04/04 10:18:18;;;;;;;12.60;4.32;;;6.80;99.90;;;;;;5116179;28;20039;-74
2022/04/04 10:20:52;;;;;;;6.75;2.95;;;6.90;99.90;;;;;;5105143;28;20059;-77
2022/04/04 10:23:19;;;;;;;6.38;2.65;;;6.90;99.90;;;;;;5107887;28;20090;-75
2022/04/04 10:25:48;;;;;;;4.50;2.20;;;6.90;99.90;;;;;;5114911;28;20043;-77
2022/04/04 10:28:27;;;;;;;4.63;2.60;;;6.90;99.90;;;;;;5117111;27;20043;-78
2022/04/04 10:30:52;;;;;;;6.47;2.58;;;7.00;99.90;;;;;;5093031;28;20035;-77
2022/04/04 10:33:20;;;;;;;5.03;2.85;;;7.10;99.90;;;;;;5109118;28;20086;-77
2022/04/04 10:36:00;;;;;;;4.30;2.22;;;7.10;99.90;;;;;;5101562;27;20062;-77
2022/04/04 10:38:34;;;;;;;4.07;2.53;;;7.10;99.90;;;;;;5104058;28;20051;-77
2022/04/04 10:41:08;;;;;;;5.38;3.10;;;7.20;99.90;;;;;;5077152;28;20051;-77
2022/04/04 10:43:39;;;;;;;5.63;1.92;;;7.30;99.90;;;;;;5100982;28;20089;-78
2022/04/04 10:46:10;;;;;;;6.80;2.92;;;7.30;99.90;;;;;;5101756;28;20039;-79
2022/04/04 10:48:41;;;;;;;3.30;2.42;;;7.20;99.90;;;;;;5108116;28;20191;-78
2022/04/04 10:51:26;;;;;;;7.53;2.63;;;7.30;99.90;;;;;;5112059;27;20031;-77
2022/04/04 10:53:57;;;;;;;7.07;2.22;;;7.30;99.90;;;;;;5115647;27;20039;-78
2022/04/04 10:56:26;;;;;;;5.10;2.47;;;7.30;99.90;;;;;;5097592;28;20032;-78
2022/04/04 10:58:53;;;;;;;4.53;2.05;;;7.30;99.90;;;;;;5103907;27;20398;-79
2022/04/04 11:01:21;;;;;;;6.30;1.98;;;7.40;99.90;;;;;;5093741;28;20184;-78
2022/04/04 11:03:52;;;;;;;6.20;1.65;;;7.40;99.90;;;;;;5099940;28;20491;-75
2022/04/04 11:09:22;;;;;;;3.90;1.70;;;7.40;99.90;;;;;;5093557;28;20119;-78
2022/04/04 11:12:00;;;;;;;7.03;1.73;;;7.40;99.90;;;;;;5103103;28;20114;-78
2022/04/04 11:14:28;;;;;;;3.20;1.13;;;7.40;99.90;;;;;;5109567;28;20048;-78
2022/04/04 11:17:06;;;;;;;1.98;1.20;;;7.50;99.90;;;;;;5104931;27;20096;-79
2022/04/04 11:19:45;;;;;;;3.22;1.35;;;7.60;99.90;;;;;;5096827;28;20129;-80
2022/04/04 11:22:25;;;;;;;3.88;1.33;;;7.60;99.90;;;;;;5108473;27;20032;-76
2022/04/04 11:24:51;;;;;;;4.50;1.50;;;7.70;99.90;;;;;;5110592;27;20070;-77
2022/04/04 11:27:18;;;;;;;1.83;0.93;;;7.70;99.90;;;;;;5104809;27;20052;-76
2022/04/04 11:29:44;;;;;;;2.88;1.33;;;7.70;99.90;;;;;;5089593;28;20024;-77
2022/04/04 11:32:16;;;;;;;1.27;0.70;;;7.70;99.90;;;;;;5097288;28;20040;-79
2022/04/04 11:34:42;;;;;;;1.38;0.80;;;7.70;99.90;;;;;;5103453;28;20040;-79
2022/04/04 11:37:17;;;;;;;2.95;1.42;;;7.80;99.90;;;;;;5103248;28;20126;-79
2022/04/04 11:39:45;;;;;;;2.33;1.33;;;7.80;99.90;;;;;;5113094;28;20114;-80
2022/04/04 11:42:10;;;;;;;2.70;1.02;;;7.80;99.90;;;;;;5093065;27;20036;-82
2022/04/04 11:44:45;;;;;;;2.67;1.65;;;7.90;99.90;;;;;;5105990;28;20065;-79
2022/04/04 11:47:12;;;;;;;2.28;1.00;;;8.00;99.90;;;;;;5112241;27;20050;-79
2022/04/04 11:49:39;;;;;;;2.60;1.40;;;8.00;99.90;;;;;;5104978;28;20538;-80
2022/04/04 11:52:07;;;;;;;1.23;0.70;;;7.90;99.90;;;;;;5095401;28;20032;-79
2022/04/04 11:54:40;;;;;;;4.07;1.35;;;8.00;99.90;;;;;;5107811;28;20039;-80
2022/04/04 11:57:07;;;;;;;2.53;0.80;;;8.00;99.90;;;;;;5114871;28;20040;-83
2022/04/04 11:59:40;;;;;;;1.65;1.00;;;8.00;99.90;;;;;;5116436;28;20036;-81
2022/04/04 12:02:08;;;;;;;1.20;1.05;;;7.90;99.90;;;;;;5104987;28;20122;-80
2022/04/04 12:04:40;;;;;;;1.50;1.23;;;8.00;99.90;;;;;;5109235;28;20031;-79
2022/04/04 12:07:07;;;;;;;2.33;1.63;;;8.10;99.90;;;;;;5110240;27;20040;-81
2022/04/04 12:09:36;;;;;;;4.25;1.70;;;8.10;99.90;;;;;;5116016;28;20036;-80
2022/04/04 12:12:08;;;;;;;3.42;1.73;;;8.20;99.90;;;;;;5100709;28;20118;-79
2022/04/04 12:14:37;;;;;;;3.40;1.55;;;8.10;99.90;;;;;;5115465;27;20043;-81
2022/04/04 12:17:03;;;;;;;2.90;1.88;;;8.10;99.90;;;;;;5112858;27;20052;-81
2022/04/04 12:19:29;;;;;;;2.70;1.75;;;8.10;99.90;;;;;;5096561;27;20043;-82
2022/04/04 12:21:56;;;;;;;2.72;1.95;;;8.20;99.90;;;;;;5107008;27;20096;-81
2022/04/04 12:27:14;;;;;;;4.32;2.30;;;8.30;99.90;;;;;;5114080;27;20054;-80
2022/04/04 12:29:41;;;;;;;3.78;2.83;;;8.30;99.90;;;;;;5111739;27;20078;-80
2022/04/04 12:32:15;;;;;;;4.53;3.22;;;8.30;99.90;;;;;;5101607;28;20069;-78
2022/04/04 12:35:06;;;;;;;4.78;2.72;;;8.30;99.90;;;;;;5098544;28;20054;-80
2022/04/04 12:37:43;;;;;;;4.18;3.13;;;8.40;99.90;;;;;;5099751;27;20055;-80
2022/04/04 12:40:12;;;;;;;4.88;3.72;;;8.40;99.90;;;;;;5118630;27;20039;-79
2022/04/04 12:42:38;;;;;;;10.45;3.42;;;8.50;99.90;;;;;;5107576;27;20048;-81
2022/04/04 12:45:04;;;;;;;7.63;3.38;;;8.50;99.90;;;;;;5105958;27;20034;-81
2022/04/04 12:47:29;;;;;;;4.50;3.17;;;8.60;99.90;;;;;;5107971;27;20070;-80
2022/04/04 12:50:14;;;;;;;4.80;3.75;;;8.60;99.90;;;;;;5116351;27;20040;-82
2022/04/04 12:53:00;;;;;;;3.70;3.20;;;8.70;99.90;;;;;;5106285;28;20050;-81
2022/04/04 12:55:26;;;;;;;5.63;3.65;;;8.70;99.90;;;;;;5099620;28;20059;-79
2022/04/04 12:57:52;;;;;;;5.13;3.75;;;8.70;99.90;;;;;;5114923;27;20035;-80